createdAt,value
2018-08-11T00:03:01.230Z,10.7
2018-08-11T00:18:01.237Z,10.4
2018-08-11T00:23:01.176Z,10.2
2018-08-11T00:28:01.118Z,9.8
2018-08-11T00:33:01.241Z,9.1
2018-08-11T00:38:01.118Z,8.5
2018-08-11T00:53:01.161Z,8.5
2018-08-11T00:58:01.097Z,8.8
2018-08-11T01:03:01.165Z,9.0
2018-08-11T01:08:01.103Z,9.1
2018-08-11T01:13:01.232Z,9.5
2018-08-11T01:18:01.106Z,10.3
2018-08-11T01:28:01.235Z,10.7
2018-08-11T01:38:01.105Z,10.3
2018-08-11T01:43:01.235Z,10.2
2018-08-11T01:48:01.105Z,10.4
2018-08-11T01:53:01.171Z,10.2
2018-08-11T01:58:01.110Z,10.9
2018-08-11T02:03:01.169Z,11.3
2018-08-11T02:08:01.106Z,11.7
2018-08-11T02:13:01.176Z,12.2
2018-08-11T02:18:01.113Z,12.8
2018-08-11T02:24:01.096Z,12.4
2018-08-11T02:29:01.169Z,12.6
2018-08-11T02:34:01.126Z,12.3
2018-08-11T02:39:01.260Z,12.4
2018-08-11T02:54:01.105Z,13.4
2018-08-11T02:59:01.167Z,13.8
2018-08-11T03:04:01.074Z,14.1
2018-08-11T03:09:01.168Z,14.8
2018-08-11T03:14:01.175Z,15.8
2018-08-11T03:19:01.238Z,15.6
2018-08-11T03:24:01.119Z,17.3
2018-08-11T03:29:06.121Z,17.8
2018-08-11T03:34:01.114Z,18.2
2018-08-11T03:39:01.107Z,18.6
2018-08-11T03:49:01.165Z,17.6
2018-08-11T03:54:01.090Z,16.0
2018-08-11T03:59:01.236Z,14.6
2018-08-11T04:04:01.106Z,13.1
2018-08-11T04:09:01.172Z,11.4
2018-08-11T04:14:01.105Z,8.6
2018-08-11T04:19:01.174Z,7.3
2018-08-11T04:24:01.118Z,5.4
2018-08-11T04:29:01.096Z,4.4
2018-08-11T04:34:01.107Z,3.6
2018-08-11T04:44:01.107Z,3.3
2018-08-11T04:54:01.101Z,2.8
2018-08-11T05:04:01.174Z,2.6
2018-08-11T05:14:01.134Z,2.4
2018-08-11T05:19:06.176Z,2.3
2018-08-11T05:24:06.104Z,2.7
2018-08-11T05:34:06.183Z,3.2
2018-08-11T05:39:01.226Z,3.4
2018-08-11T05:44:01.105Z,3.6
2018-08-11T05:49:01.116Z,3.2
2018-08-11T05:54:01.102Z,3.4
2018-08-11T05:59:01.163Z,3.0
2018-08-11T06:04:01.124Z,3.2
2018-08-11T06:09:01.168Z,3.6
2018-08-11T06:14:01.071Z,4.0
2018-08-11T06:19:01.235Z,4.8
2018-08-11T06:24:01.102Z,5.3
2018-08-11T06:29:01.167Z,6.0
2018-08-11T06:34:01.100Z,6.4
2018-08-11T06:39:01.174Z,6.8
2018-08-11T06:49:01.102Z,7.7
2018-08-11T06:54:01.114Z,8.2
2018-08-11T06:59:01.114Z,9.2
2018-08-11T07:05:01.103Z,10.3
2018-08-11T07:10:01.098Z,11.3
2018-08-11T07:15:01.099Z,12.4
2018-08-11T07:20:01.168Z,12.1
2018-08-11T07:25:01.103Z,11.9
2018-08-11T07:30:01.171Z,11.5
2018-08-11T07:35:01.111Z,11.0
2018-08-11T07:40:01.184Z,10.2
2018-08-11T07:45:01.108Z,10.2
2018-08-11T07:50:01.281Z,10.1
2018-08-11T07:55:01.082Z,9.8
2018-08-11T08:00:01.179Z,10.0
2018-08-11T08:05:01.072Z,9.9
2018-08-11T08:10:01.098Z,10.2
2018-08-11T08:15:01.163Z,10.2
2018-08-11T08:20:01.105Z,10.6
2018-08-11T08:25:01.106Z,10.4
2018-08-11T08:30:01.108Z,10.5
2018-08-11T08:35:01.110Z,10.4
2018-08-11T08:40:01.112Z,9.6
2018-08-11T08:45:01.104Z,8.6
2018-08-11T08:50:01.097Z,7.8
2018-08-11T08:55:01.069Z,6.9
2018-08-11T09:00:01.172Z,5.9
2018-08-11T09:05:01.072Z,5.1
2018-08-11T09:10:01.103Z,4.6
2018-08-11T09:15:01.079Z,3.6
2018-08-11T09:20:01.128Z,2.9
2018-08-11T09:25:01.113Z,2.3
2018-08-11T09:30:01.110Z,2.1
2018-08-11T09:35:01.110Z,1.9
2018-08-11T09:40:01.111Z,2.2
2018-08-11T09:45:01.095Z,2.2
2018-08-11T09:50:01.099Z,2.4
2018-08-11T09:55:01.144Z,2.8
2018-08-11T10:00:06.232Z,2.8
2018-08-11T10:05:01.169Z,2.6
2018-08-11T10:15:01.233Z,2.6
2018-08-11T10:20:01.180Z,2.4
2018-08-11T10:30:01.105Z,2.4
2018-08-11T10:40:01.164Z,2.2
2018-08-11T10:45:01.111Z,2.0
2018-08-11T10:50:01.154Z,2.2
2018-08-11T10:55:01.120Z,2.3
2018-08-11T11:00:01.165Z,2.8
2018-08-11T11:05:01.103Z,3.0
2018-08-11T11:10:01.206Z,3.2
2018-08-11T11:15:01.105Z,3.0
2018-08-11T11:25:01.231Z,2.8
2018-08-11T11:30:01.113Z,3.0
2018-08-11T11:35:01.108Z,3.3
2018-08-11T11:40:06.244Z,3.7
2018-08-11T11:45:06.122Z,3.8
2018-08-11T11:50:01.208Z,3.4
2018-08-11T11:55:01.130Z,3.2
2018-08-11T12:00:01.346Z,2.6
2018-08-11T12:05:01.146Z,2.3
2018-08-11T12:10:01.153Z,2.2
2018-08-11T12:15:01.144Z,2.6
2018-08-11T12:20:01.165Z,3.0
2018-08-11T12:25:01.148Z,3.4
2018-08-11T12:30:01.163Z,3.8
2018-08-11T12:35:01.144Z,4.3
2018-08-11T12:40:01.154Z,4.7
2018-08-11T12:45:01.134Z,4.9
2018-08-11T12:50:01.160Z,4.5
2018-08-11T13:00:01.229Z,4.0
2018-08-11T13:05:01.103Z,3.6
2018-08-11T13:10:01.120Z,3.2
2018-08-11T13:15:01.105Z,3.8
2018-08-11T13:25:01.118Z,4.4
2018-08-11T13:30:01.247Z,4.5
2018-08-11T13:35:01.117Z,4.9
2018-08-11T13:45:01.228Z,4.6
2018-08-11T13:50:01.166Z,4.0
2018-08-11T13:55:01.187Z,3.7
2018-08-11T14:00:01.134Z,3.3
2018-08-11T14:05:01.159Z,2.8
2018-08-11T14:10:01.349Z,2.6
2018-08-11T14:15:01.191Z,2.5
2018-08-11T14:20:01.172Z,2.3
2018-08-11T14:30:01.174Z,2.4
2018-08-11T14:35:01.133Z,2.5
2018-08-11T14:40:01.113Z,2.7
2018-08-11T14:45:01.093Z,3.0
2018-08-11T14:55:01.230Z,3.2
2018-08-11T15:00:01.103Z,3.0
2018-08-11T15:05:01.105Z,3.2
2018-08-11T15:15:01.171Z,3.2
2018-08-11T15:20:01.128Z,3.4
2018-08-11T15:25:01.105Z,3.8
2018-08-11T15:30:01.172Z,3.5
2018-08-11T15:40:01.176Z,3.4
2018-08-11T15:45:01.118Z,3.0
2018-08-11T15:50:01.238Z,2.9
2018-08-11T15:55:01.079Z,3.0
2018-08-11T16:00:01.174Z,3.4
2018-08-11T16:05:01.094Z,3.5
2018-08-11T16:10:01.163Z,3.7
2018-08-11T16:15:01.101Z,3.4
2018-08-11T16:20:06.174Z,3.6
2018-08-11T16:25:06.108Z,3.5
2018-08-11T16:30:06.115Z,4.4
2018-08-11T16:35:06.078Z,4.5
2018-08-11T16:40:01.177Z,4.8
2018-08-11T16:45:01.111Z,4.6
2018-08-11T16:50:01.175Z,4.5
2018-08-11T16:55:01.112Z,4.3
2018-08-11T17:00:01.256Z,4.2
2018-08-11T17:05:01.068Z,4.5
2018-08-11T17:15:01.176Z,4.3
2018-08-11T17:20:01.165Z,3.8
2018-08-11T17:25:01.098Z,3.7
2018-08-11T17:30:01.117Z,3.4
2018-08-11T17:35:01.081Z,3.6
2018-08-11T17:40:01.189Z,4.2
2018-08-11T17:45:01.088Z,4.2
2018-08-11T17:51:01.234Z,4.6
2018-08-11T17:56:01.107Z,4.7
2018-08-11T18:06:01.101Z,4.2
2018-08-11T18:11:01.176Z,4.0
2018-08-11T18:16:01.109Z,3.8
2018-08-11T18:21:01.109Z,3.5
2018-08-11T18:26:01.115Z,3.3
2018-08-11T18:31:01.178Z,3.4
2018-08-11T18:42:01.097Z,3.5
2018-08-11T18:52:01.146Z,3.7
2018-08-11T19:02:01.235Z,3.9
2018-08-11T19:12:01.109Z,4.1
2018-08-11T19:17:01.073Z,4.3
2018-08-11T19:22:01.110Z,4.6
2018-08-11T19:27:01.113Z,4.8
2018-08-11T19:33:01.228Z,4.7
2018-08-11T19:38:01.112Z,4.5
2018-08-11T19:43:01.234Z,4.3
2018-08-11T19:48:01.104Z,4.0
2018-08-11T19:53:01.171Z,3.6
2018-08-11T19:58:01.131Z,3.5
2018-08-11T20:03:01.178Z,3.6
2018-08-11T20:13:11.177Z,4.1
2018-08-11T20:18:01.232Z,4.3
2018-08-11T20:23:06.181Z,4.6
2018-08-11T20:38:01.167Z,4.1
2018-08-11T20:48:01.198Z,3.8
2018-08-11T20:53:01.133Z,3.9
2018-08-11T20:58:01.128Z,4.0
2018-08-11T21:14:01.167Z,4.1
2018-08-11T21:19:01.096Z,4.6
2018-08-11T21:29:01.165Z,4.4
2018-08-11T21:34:01.101Z,4.8
2018-08-11T21:44:01.175Z,4.4
2018-08-11T21:49:01.239Z,4.2
2018-08-11T21:54:01.081Z,4.5
2018-08-11T21:59:01.111Z,3.9
2018-08-11T22:09:01.183Z,3.7
2018-08-11T22:14:01.135Z,3.6
2018-08-11T22:19:01.198Z,4.1
2018-08-11T22:24:01.134Z,4.4
2018-08-11T22:29:01.201Z,4.8
2018-08-11T22:34:01.142Z,5.1
2018-08-11T22:39:01.268Z,5.3
2018-08-11T22:44:01.157Z,5.2
2018-08-11T22:49:01.271Z,5.3
2018-08-11T22:54:01.098Z,5.2
2018-08-11T22:59:01.228Z,5.4
2018-08-11T23:09:01.161Z,5.5
2018-08-11T23:14:01.134Z,5.6
2018-08-11T23:19:01.261Z,6.2
2018-08-11T23:29:01.105Z,6.8
2018-08-11T23:34:01.105Z,6.6
2018-08-11T23:39:01.108Z,6.8
2018-08-11T23:44:01.078Z,6.2
2018-08-11T23:49:01.173Z,6.5
2018-08-11T23:59:01.166Z,6.6
